createdAt,value
2022-08-12T00:00:55.179Z,101713.03
2022-08-12T00:03:40.771Z,101715.16
2022-08-12T00:06:26.543Z,101714.31
2022-08-12T00:09:12.007Z,101710.97
2022-08-12T00:11:57.228Z,101716.13
2022-08-12T00:14:43.591Z,101708.34
2022-08-12T00:17:29.207Z,101717.75
2022-08-12T00:20:14.613Z,101722.59
2022-08-12T00:23:00.347Z,101716.44
2022-08-12T00:26:21.103Z,101717.63
2022-08-12T00:29:02.540Z,101712.25
2022-08-12T00:31:49.614Z,101713.41
2022-08-12T00:34:35.642Z,101715.16
2022-08-12T00:37:21.013Z,101709.94
2022-08-12T00:40:10.830Z,101711.84
2022-08-12T00:42:41.245Z,101706.72
2022-08-12T00:45:10.234Z,101712.03
2022-08-12T00:47:40.668Z,101700.31
2022-08-12T00:50:17.612Z,101704.88
2022-08-12T00:52:46.541Z,101711.13
2022-08-12T00:55:14.499Z,101704.19
2022-08-12T00:57:47.767Z,101704.38
2022-08-12T01:00:18.412Z,101708.97
2022-08-12T01:02:52.049Z,101707.84
2022-08-12T01:05:39.436Z,101704.88
2022-08-12T01:08:25.357Z,101703.13
2022-08-12T01:11:13.009Z,101702.13
2022-08-12T01:13:42.455Z,101705.56
2022-08-12T01:16:10.609Z,101703.88
2022-08-12T01:18:41.552Z,101705.25
2022-08-12T01:21:13.234Z,101707.13
2022-08-12T01:23:50.240Z,101715.00
2022-08-12T01:26:23.220Z,101701.34
2022-08-12T01:28:53.801Z,101705.97
2022-08-12T01:31:24.104Z,101704.75
2022-08-12T01:33:59.640Z,101705.72
2022-08-12T01:36:28.947Z,101703.97
2022-08-12T01:38:59.015Z,101702.78
2022-08-12T01:41:30.826Z,101703.09
2022-08-12T01:44:00.936Z,101702.13
2022-08-12T01:46:40.319Z,101697.75
2022-08-12T01:49:21.723Z,101700.94
2022-08-12T01:52:19.980Z,101702.06
2022-08-12T01:54:47.064Z,101693.94
2022-08-12T01:57:58.636Z,101705.56
2022-08-12T02:00:12.169Z,101695.69
2022-08-12T02:02:41.673Z,101695.00
2022-08-12T02:05:35.018Z,101692.25
2022-08-12T02:08:36.178Z,101695.31
2022-08-12T02:11:17.298Z,101688.19
2022-08-12T02:14:00.632Z,101684.31
2022-08-12T02:16:39.923Z,101682.69
2022-08-12T02:19:25.720Z,101686.50
2022-08-12T02:21:59.785Z,101678.13
2022-08-12T02:24:31.188Z,101678.25
2022-08-12T02:26:59.603Z,101678.81
2022-08-12T02:29:29.105Z,101686.63
2022-08-12T02:31:59.121Z,101686.31
2022-08-12T02:34:27.616Z,101680.28
2022-08-12T02:36:55.983Z,101684.38
2022-08-12T02:39:26.938Z,101679.00
2022-08-12T02:41:56.048Z,101682.56
2022-08-12T02:44:24.737Z,101684.69
2022-08-12T02:46:55.469Z,101676.63
2022-08-12T02:49:25.838Z,101683.06
2022-08-12T02:51:54.848Z,101681.94
2022-08-12T02:54:23.585Z,101682.13
2022-08-12T02:56:52.350Z,101681.59
2022-08-12T02:59:22.931Z,101684.03
2022-08-12T03:01:54.233Z,101679.16
2022-08-12T03:04:27.453Z,101676.09
2022-08-12T03:07:03.705Z,101679.97
2022-08-12T03:09:51.505Z,101672.97
2022-08-12T03:12:25.446Z,101676.13
2022-08-12T03:14:55.925Z,101672.34
2022-08-12T03:17:29.202Z,101670.41
2022-08-12T03:20:10.104Z,101668.59
2022-08-12T03:22:40.951Z,101663.28
2022-08-12T03:25:17.045Z,101673.16
2022-08-12T03:27:49.641Z,101668.06
2022-08-12T03:30:18.798Z,101667.84
2022-08-12T03:32:48.822Z,101665.28
2022-08-12T03:35:41.500Z,101664.28
2022-08-12T03:38:12.122Z,101665.78
2022-08-12T03:41:13.271Z,101663.53
2022-08-12T03:44:04.817Z,101658.28
2022-08-12T03:46:52.472Z,101651.97
2022-08-12T03:49:37.623Z,101658.50
2022-08-12T03:52:25.213Z,101654.59
2022-08-12T03:55:10.713Z,101654.88
2022-08-12T03:57:55.827Z,101651.47
2022-08-12T04:00:24.652Z,101656.16
2022-08-12T04:02:58.972Z,101658.72
2022-08-12T04:05:54.750Z,101657.16
2022-08-12T04:08:16.689Z,101664.41
2022-08-12T04:11:03.337Z,101665.34
2022-08-12T04:13:31.185Z,101668.06
2022-08-12T04:16:03.048Z,101669.06
2022-08-12T04:18:30.756Z,101671.56
2022-08-12T04:20:59.087Z,101667.72
2022-08-12T04:23:28.697Z,101670.25
2022-08-12T04:25:56.403Z,101670.69
2022-08-12T04:28:27.731Z,101665.91
2022-08-12T04:30:57.958Z,101658.03
2022-08-12T04:33:26.940Z,101673.13
2022-08-12T04:35:55.049Z,101665.38
2022-08-12T04:38:24.460Z,101663.59
2022-08-12T04:40:53.687Z,101658.75
2022-08-12T04:44:00.206Z,101655.88
2022-08-12T04:46:09.351Z,101657.50
2022-08-12T04:48:37.068Z,101656.09
2022-08-12T04:51:06.717Z,101657.16
2022-08-12T04:53:34.875Z,101658.19
2022-08-12T04:56:05.504Z,101664.63
2022-08-12T04:58:34.154Z,101668.00
2022-08-12T05:01:03.082Z,101672.59
2022-08-12T05:03:46.659Z,101680.44
2022-08-12T05:06:26.932Z,101676.78
2022-08-12T05:08:55.705Z,101681.75
2022-08-12T05:11:27.680Z,101676.25
2022-08-12T05:13:59.311Z,101680.97
2022-08-12T05:16:31.116Z,101667.44
2022-08-12T05:19:03.025Z,101677.06
2022-08-12T05:21:30.700Z,101676.28
2022-08-12T05:23:58.453Z,101678.75
2022-08-12T05:26:41.996Z,101671.50
2022-08-12T05:30:06.824Z,101671.78
2022-08-12T05:32:04.297Z,101672.47
2022-08-12T05:34:32.298Z,101674.38
2022-08-12T05:37:00.405Z,101679.44
2022-08-12T05:39:28.798Z,101683.41
2022-08-12T05:41:57.888Z,101681.34
2022-08-12T05:44:25.629Z,101682.06
2022-08-12T05:46:53.401Z,101678.31
2022-08-12T05:49:21.157Z,101683.66
2022-08-12T05:51:48.956Z,101690.31
2022-08-12T05:54:16.826Z,101682.94
2022-08-12T05:56:45.516Z,101687.44
2022-08-12T05:59:14.835Z,101686.59
2022-08-12T06:02:09.383Z,101689.66
2022-08-12T06:04:32.147Z,101696.84
2022-08-12T06:07:48.732Z,101699.06
2022-08-12T06:09:50.732Z,101701.00
2022-08-12T06:12:23.630Z,101696.56
2022-08-12T06:14:55.007Z,101693.56
2022-08-12T06:17:22.962Z,101691.41
2022-08-12T06:20:26.034Z,101695.69
2022-08-12T06:22:39.572Z,101702.31
2022-08-12T06:25:08.168Z,101695.97
2022-08-12T06:27:43.109Z,101700.69
2022-08-12T06:30:38.448Z,101701.09
2022-08-12T06:33:21.971Z,101703.72
2022-08-12T06:35:51.851Z,101705.19
2022-08-12T06:38:21.306Z,101700.31
2022-08-12T06:41:08.775Z,101696.56
2022-08-12T06:44:04.760Z,101701.19
2022-08-12T06:46:26.897Z,101711.28
2022-08-12T06:48:58.704Z,101708.06
2022-08-12T06:51:28.361Z,101705.00
2022-08-12T06:53:57.830Z,101701.75
2022-08-12T06:56:40.202Z,101694.16
2022-08-12T06:59:14.071Z,101696.59
2022-08-12T07:01:49.856Z,101703.81
2022-08-12T07:04:37.503Z,101704.13
2022-08-12T07:07:07.334Z,101704.31
2022-08-12T07:10:03.957Z,101702.09
2022-08-12T07:12:22.903Z,101691.34
2022-08-12T07:14:56.253Z,101694.31
2022-08-12T07:17:25.458Z,101689.53
2022-08-12T07:19:53.643Z,101695.03
2022-08-12T07:22:23.110Z,101692.06
2022-08-12T07:25:11.349Z,101699.22
2022-08-12T07:27:40.579Z,101693.81
2022-08-12T07:30:09.892Z,101700.75
2022-08-12T07:32:39.117Z,101704.09
2022-08-12T07:35:07.791Z,101708.25
2022-08-12T07:37:41.447Z,101706.50
2022-08-12T07:40:11.524Z,101704.34
2022-08-12T07:42:39.898Z,101702.91
2022-08-12T07:45:09.405Z,101701.81
2022-08-12T07:47:37.832Z,101695.56
2022-08-12T07:50:09.237Z,101705.97
2022-08-12T07:52:39.089Z,101702.94
2022-08-12T07:55:08.356Z,101697.16
2022-08-12T07:57:37.124Z,101695.13
2022-08-12T08:00:06.343Z,101697.31
2022-08-12T08:02:35.651Z,101690.25
2022-08-12T08:05:04.079Z,101697.94
2022-08-12T08:07:33.398Z,101701.25
2022-08-12T08:10:03.499Z,101699.88
2022-08-12T08:12:48.705Z,101694.81
2022-08-12T08:15:16.810Z,101704.94
2022-08-12T08:17:56.477Z,101695.72
2022-08-12T08:20:28.813Z,101693.75
2022-08-12T08:22:59.269Z,101694.56
2022-08-12T08:25:35.581Z,101692.25
2022-08-12T08:28:06.747Z,101694.38
2022-08-12T08:30:35.135Z,101692.56
2022-08-12T08:33:02.916Z,101695.16
2022-08-12T08:35:48.300Z,101691.88
2022-08-12T08:38:30.076Z,101686.97
2022-08-12T08:42:15.682Z,101698.66
2022-08-12T08:44:05.761Z,101694.69
2022-08-12T08:46:37.249Z,101694.31
2022-08-12T08:49:05.173Z,101704.84
2022-08-12T08:51:33.245Z,101698.28
2022-08-12T08:54:02.415Z,101702.41
2022-08-12T08:56:30.260Z,101694.25
2022-08-12T08:58:58.478Z,101693.03
2022-08-12T09:01:26.261Z,101686.41
2022-08-12T09:05:09.309Z,101687.94
2022-08-12T09:06:53.664Z,101694.56
2022-08-12T09:09:23.809Z,101685.81
2022-08-12T09:12:12.264Z,101691.63
2022-08-12T09:14:43.478Z,101689.00
2022-08-12T09:17:20.941Z,101684.81
2022-08-12T09:19:53.632Z,101678.44
2022-08-12T09:22:29.216Z,101678.81
2022-08-12T09:25:01.236Z,101682.22
2022-08-12T09:27:57.645Z,101687.03
2022-08-12T09:30:42.083Z,101673.66
2022-08-12T09:33:18.944Z,101680.91
2022-08-12T09:36:04.911Z,101683.50
2022-08-12T09:38:35.221Z,101679.53
2022-08-12T09:42:33.883Z,101667.69
2022-08-12T09:44:37.943Z,101666.91
2022-08-12T09:46:58.777Z,101659.69
2022-08-12T09:49:28.114Z,101661.50
2022-08-12T09:51:57.141Z,101656.72
2022-08-12T09:54:32.957Z,101659.94
2022-08-12T09:58:47.139Z,101656.09
2022-08-12T10:00:16.687Z,101657.25
2022-08-12T10:03:00.323Z,101655.75
2022-08-12T10:06:27.094Z,101643.63
2022-08-12T10:08:27.334Z,101646.06
2022-08-12T10:11:20.190Z,101639.13
2022-08-12T10:13:52.738Z,101648.34
2022-08-12T10:16:23.079Z,101634.53
2022-08-12T10:18:54.479Z,101631.16
2022-08-12T10:21:36.480Z,101625.78
2022-08-12T10:24:06.091Z,101626.94
2022-08-12T10:26:52.100Z,101624.44
2022-08-12T10:30:39.036Z,101618.81
2022-08-12T10:32:43.766Z,101613.34
2022-08-12T10:35:15.435Z,101613.81
2022-08-12T10:38:33.281Z,101614.00
2022-08-12T10:40:33.951Z,101614.47
2022-08-12T10:43:19.800Z,101592.59
2022-08-12T10:45:53.178Z,101603.09
2022-08-12T10:48:26.754Z,101601.06
2022-08-12T10:50:58.558Z,101597.31
2022-08-12T10:53:45.129Z,101592.88
2022-08-12T10:56:15.208Z,101584.78
2022-08-12T10:58:46.028Z,101582.13
2022-08-12T11:01:49.165Z,101577.59
2022-08-12T11:04:25.624Z,101576.91
2022-08-12T11:07:08.744Z,101574.06
2022-08-12T11:10:00.305Z,101587.91
2022-08-12T11:12:54.769Z,101574.53
2022-08-12T11:15:32.838Z,101570.69
2022-08-12T11:18:12.108Z,101572.19
2022-08-12T11:20:47.866Z,101565.41
2022-08-12T11:23:24.954Z,101563.63
2022-08-12T11:26:05.890Z,101562.13
2022-08-12T11:28:37.272Z,101562.59
2022-08-12T11:31:12.229Z,101561.09
2022-08-12T11:34:04.729Z,101551.09
2022-08-12T11:36:31.336Z,101549.75
2022-08-12T11:39:02.320Z,101541.38
2022-08-12T11:41:33.563Z,101552.59
2022-08-12T11:44:35.278Z,101550.66
2022-08-12T11:46:51.233Z,101548.78
2022-08-12T11:49:31.199Z,101544.94
2022-08-12T11:52:03.078Z,101555.63
2022-08-12T11:54:31.322Z,101545.09
2022-08-12T11:57:00.525Z,101544.25
2022-08-12T12:02:20.139Z,101544.25
2022-08-12T12:04:52.843Z,101537.72
2022-08-12T12:07:34.023Z,101536.28
2022-08-12T12:10:11.872Z,101534.50
2022-08-12T12:12:41.566Z,101524.81
2022-08-12T12:15:25.475Z,101520.88
2022-08-12T12:18:05.368Z,101526.88
2022-08-12T12:20:35.398Z,101525.28
2022-08-12T12:23:04.536Z,101528.75
2022-08-12T12:26:07.291Z,101531.03
2022-08-12T12:28:37.173Z,101526.41
2022-08-12T12:31:14.649Z,101528.31
2022-08-12T12:33:57.731Z,101525.19
2022-08-12T12:36:29.930Z,101529.63
2022-08-12T12:39:00.080Z,101520.78
2022-08-12T12:42:43.458Z,101516.66
2022-08-12T12:44:25.740Z,101513.63
2022-08-12T12:46:58.216Z,101517.66
2022-08-12T12:49:26.096Z,101505.00
2022-08-12T12:52:18.685Z,101505.69
2022-08-12T12:54:52.439Z,101509.03
2022-08-12T12:57:36.420Z,101502.69
2022-08-12T13:00:18.837Z,101501.03
2022-08-12T13:02:55.482Z,101503.13
2022-08-12T13:05:28.015Z,101497.50
2022-08-12T13:08:00.765Z,101500.34
2022-08-12T13:10:36.560Z,101492.28
2022-08-12T13:14:06.396Z,101493.34
2022-08-12T13:15:53.774Z,101493.97
2022-08-12T13:18:33.371Z,101493.47
2022-08-12T13:21:03.989Z,101494.59
2022-08-12T13:23:35.906Z,101503.84
2022-08-12T13:26:05.401Z,101498.19
2022-08-12T13:28:33.504Z,101484.84
2022-08-12T13:31:02.901Z,101493.53
2022-08-12T13:34:29.671Z,101495.00
2022-08-12T13:36:20.937Z,101490.75
2022-08-12T13:38:54.239Z,101494.53
2022-08-12T13:41:33.507Z,101495.78
2022-08-12T13:44:03.051Z,101498.28
2022-08-12T13:46:30.763Z,101504.03
2022-08-12T13:48:58.677Z,101499.56
2022-08-12T13:51:26.888Z,101482.16
2022-08-12T13:54:11.773Z,101478.88
2022-08-12T13:56:41.913Z,101480.63
2022-08-12T13:59:24.416Z,101466.09
2022-08-12T14:01:54.327Z,101467.13
2022-08-12T14:04:25.020Z,101468.31
2022-08-12T14:06:55.048Z,101469.22
2022-08-12T14:09:29.647Z,101470.66
2022-08-12T14:11:58.613Z,101464.84
2022-08-12T14:14:27.024Z,101470.94
2022-08-12T14:16:55.085Z,101464.56
2022-08-12T14:19:27.130Z,101464.91
2022-08-12T14:22:04.769Z,101468.59
2022-08-12T14:24:40.552Z,101462.53
2022-08-12T14:27:10.774Z,101461.50
2022-08-12T14:30:04.967Z,101461.34
2022-08-12T14:32:34.183Z,101456.34
2022-08-12T14:35:02.931Z,101461.06
2022-08-12T14:37:56.044Z,101458.69
2022-08-12T14:40:27.513Z,101463.19
2022-08-12T14:42:55.508Z,101451.03
2022-08-12T14:45:44.525Z,101453.94
2022-08-12T14:48:15.165Z,101446.38
2022-08-12T14:52:10.295Z,101457.97
2022-08-12T14:59:41.995Z,101443.44
2022-08-12T15:02:28.399Z,101445.94
2022-08-12T15:04:58.882Z,101449.13
2022-08-12T15:07:33.474Z,101451.03
2022-08-12T15:10:31.170Z,101441.06
2022-08-12T15:13:07.674Z,101436.34
2022-08-12T15:15:38.531Z,101440.25
2022-08-12T15:18:13.835Z,101434.66
2022-08-12T15:20:42.240Z,101437.63
2022-08-12T15:23:17.619Z,101439.84
2022-08-12T15:25:50.335Z,101435.75
2022-08-12T15:28:33.386Z,101430.00
2022-08-12T15:31:02.206Z,101428.81
2022-08-12T15:33:45.449Z,101421.94
2022-08-12T15:36:19.436Z,101423.00
2022-08-12T15:39:04.146Z,101419.22
2022-08-12T15:41:49.993Z,101428.78
2022-08-12T15:44:38.423Z,101431.41
2022-08-12T15:47:08.609Z,101421.56
2022-08-12T15:49:43.144Z,101423.09
2022-08-12T15:52:27.529Z,101422.47
2022-08-12T15:54:58.775Z,101431.16
2022-08-12T15:57:27.587Z,101428.13
2022-08-12T16:00:06.912Z,101426.81
2022-08-12T16:02:41.962Z,101418.34
2022-08-12T16:06:12.267Z,101414.81
2022-08-12T16:08:09.419Z,101415.78
2022-08-12T16:10:43.197Z,101412.38
2022-08-12T16:13:18.028Z,101409.41
2022-08-12T16:16:02.076Z,101406.56
2022-08-12T16:18:31.255Z,101404.03
2022-08-12T16:20:59.024Z,101410.19
2022-08-12T16:23:51.747Z,101405.38
2022-08-12T16:26:20.286Z,101403.94
2022-08-12T16:28:56.030Z,101409.13
2022-08-12T16:31:25.865Z,101400.09
2022-08-12T16:34:00.242Z,101394.56
2022-08-12T16:36:30.283Z,101398.84
2022-08-12T16:39:01.403Z,101402.69
2022-08-12T16:41:38.223Z,101402.44
2022-08-12T16:44:08.521Z,101395.44
2022-08-12T16:46:38.089Z,101394.00
2022-08-12T16:49:08.948Z,101391.88
2022-08-12T16:51:45.956Z,101390.59
2022-08-12T16:54:16.070Z,101389.47
2022-08-12T16:56:54.861Z,101395.78
2022-08-12T16:59:26.193Z,101396.78
2022-08-12T17:02:00.603Z,101395.72
2022-08-12T17:04:30.105Z,101391.41
2022-08-12T17:06:57.874Z,101394.00
2022-08-12T17:09:25.750Z,101384.84
2022-08-12T17:12:03.007Z,101384.09
2022-08-12T17:14:34.380Z,101385.88
2022-08-12T17:17:04.638Z,101379.63
2022-08-12T17:20:02.562Z,101384.16
2022-08-12T17:22:34.436Z,101381.09
2022-08-12T17:25:04.136Z,101380.03
2022-08-12T17:27:44.807Z,101377.28
2022-08-12T17:30:14.033Z,101385.47
2022-08-12T17:32:53.146Z,101376.94
2022-08-12T17:35:37.278Z,101376.78
2022-08-12T17:38:07.104Z,101384.75
2022-08-12T17:40:37.015Z,101380.56
2022-08-12T17:43:57.873Z,101384.50
2022-08-12T17:45:58.944Z,101380.38
2022-08-12T17:48:34.661Z,101381.63
2022-08-12T17:51:16.197Z,101384.09
2022-08-12T17:54:05.682Z,101386.22
2022-08-12T17:56:36.754Z,101386.47
2022-08-12T17:59:07.650Z,101392.31
2022-08-12T18:01:35.891Z,101389.38
2022-08-12T18:04:22.117Z,101386.63
2022-08-12T18:06:54.008Z,101381.06
2022-08-12T18:09:32.329Z,101385.03
2022-08-12T18:12:35.370Z,101393.34
2022-08-12T18:15:08.530Z,101394.03
2022-08-12T18:17:39.489Z,101399.56
2022-08-12T18:20:12.580Z,101391.19
2022-08-12T18:22:44.642Z,101387.53
2022-08-12T18:26:15.643Z,101394.44
2022-08-12T18:28:29.062Z,101396.50
2022-08-12T18:31:03.111Z,101405.66
2022-08-12T18:33:41.558Z,101395.75
2022-08-12T18:36:13.759Z,101403.66
2022-08-12T18:38:44.983Z,101393.75
2022-08-12T18:41:30.636Z,101394.19
2022-08-12T18:44:07.816Z,101401.16
2022-08-12T18:46:54.469Z,101398.06
2022-08-12T18:49:30.372Z,101402.78
2022-08-12T18:52:05.257Z,101406.00
2022-08-12T18:54:35.942Z,101407.63
2022-08-12T18:57:19.988Z,101408.91
2022-08-12T19:00:00.316Z,101418.03
2022-08-12T19:02:32.688Z,101409.03
2022-08-12T19:05:08.707Z,101411.75
2022-08-12T19:07:49.877Z,101413.81
2022-08-12T19:10:29.221Z,101410.13
2022-08-12T19:13:23.324Z,101423.19
2022-08-12T19:15:54.102Z,101421.78
2022-08-12T19:18:24.246Z,101419.03
2022-08-12T19:20:51.952Z,101421.56
2022-08-12T19:23:22.251Z,101409.53
2022-08-12T19:26:01.518Z,101416.34
2022-08-12T19:28:35.247Z,101424.09
2022-08-12T19:31:44.834Z,101419.81
2022-08-12T19:37:16.973Z,101424.19
2022-08-12T19:40:09.520Z,101419.03
2022-08-12T19:42:36.967Z,101414.28
2022-08-12T19:45:12.187Z,101414.84
2022-08-12T19:47:41.349Z,101417.63
2022-08-12T19:50:11.405Z,101423.19
2022-08-12T19:52:40.976Z,101422.28
2022-08-12T19:55:19.485Z,101418.94
2022-08-12T19:58:02.726Z,101423.44
2022-08-12T20:00:34.711Z,101426.66
2022-08-12T20:03:06.920Z,101422.50
2022-08-12T20:06:05.767Z,101429.34
2022-08-12T20:08:31.478Z,101438.25
2022-08-12T20:12:12.791Z,101435.56
2022-08-12T20:14:00.545Z,101437.44
2022-08-12T20:16:52.608Z,101438.59
2022-08-12T20:19:28.532Z,101438.72
2022-08-12T20:22:23.545Z,101437.91
2022-08-12T20:24:55.351Z,101442.97
2022-08-12T20:28:02.947Z,101440.16
2022-08-12T20:30:20.178Z,101438.31
2022-08-12T20:32:55.829Z,101446.41
2022-08-12T20:35:25.069Z,101437.06
2022-08-12T20:38:26.836Z,101444.75
2022-08-12T20:40:55.431Z,101438.50
2022-08-12T20:43:28.434Z,101440.84
2022-08-12T20:46:00.050Z,101439.44
2022-08-12T20:48:29.933Z,101448.78
2022-08-12T20:51:03.993Z,101452.66
2022-08-12T20:53:58.434Z,101457.09
2022-08-12T20:56:30.530Z,101448.34
2022-08-12T20:59:02.434Z,101445.72
2022-08-12T21:01:46.510Z,101452.53
2022-08-12T21:04:33.175Z,101445.09
2022-08-12T21:07:09.632Z,101449.06
2022-08-12T21:09:42.387Z,101452.63
2022-08-12T21:12:28.508Z,101455.31
2022-08-12T21:15:24.211Z,101456.59
2022-08-12T21:18:11.094Z,101472.13
2022-08-12T21:20:54.724Z,101462.75
2022-08-12T21:23:23.240Z,101460.03
2022-08-12T21:25:52.588Z,101464.63
2022-08-12T21:28:27.736Z,101467.63
2022-08-12T21:32:37.728Z,101466.88
2022-08-12T21:34:07.280Z,101473.28
2022-08-12T21:36:39.660Z,101470.63
2022-08-12T21:39:20.760Z,101459.00
2022-08-12T21:41:51.408Z,101466.22
2022-08-12T21:44:24.442Z,101467.72
2022-08-12T21:47:12.146Z,101467.88
2022-08-12T21:49:55.246Z,101469.78
2022-08-12T21:52:34.065Z,101470.63
2022-08-12T21:55:03.159Z,101466.22
2022-08-12T21:57:36.431Z,101471.56
2022-08-12T22:00:19.636Z,101465.91
2022-08-12T22:03:07.885Z,101476.81
2022-08-12T22:05:49.825Z,101470.28
2022-08-12T22:08:22.400Z,101474.50
2022-08-12T22:10:56.368Z,101461.41
2022-08-12T22:14:03.057Z,101469.41
2022-08-12T22:16:13.181Z,101470.28
2022-08-12T22:18:50.210Z,101474.22
2022-08-12T22:21:22.293Z,101478.19
2022-08-12T22:24:05.366Z,101476.28
2022-08-12T22:26:37.428Z,101474.53
2022-08-12T22:29:23.861Z,101478.94
2022-08-12T22:31:54.909Z,101471.94
2022-08-12T22:34:29.566Z,101479.00
2022-08-12T22:36:57.955Z,101474.28
2022-08-12T22:39:26.550Z,101480.97
2022-08-12T22:42:12.231Z,101478.72
2022-08-12T22:45:06.112Z,101481.50
2022-08-12T22:47:54.719Z,101482.66
2022-08-12T22:50:29.416Z,101478.47
2022-08-12T22:53:15.103Z,101470.03
2022-08-12T22:55:59.269Z,101468.53
2022-08-12T22:58:33.751Z,101467.78
2022-08-12T23:01:03.433Z,101469.56
2022-08-12T23:03:48.787Z,101471.72
2022-08-12T23:06:23.064Z,101470.91
2022-08-12T23:08:51.597Z,101478.53
2022-08-12T23:11:23.823Z,101468.81
2022-08-12T23:13:56.718Z,101475.25
2022-08-12T23:16:31.051Z,101484.03
2022-08-12T23:19:10.991Z,101472.34
2022-08-12T23:22:05.620Z,101471.41
2022-08-12T23:24:39.416Z,101472.50
2022-08-12T23:27:50.448Z,101472.03
2022-08-12T23:30:18.387Z,101478.69
2022-08-12T23:32:53.937Z,101469.44
2022-08-12T23:35:22.563Z,101459.72
2022-08-12T23:37:53.857Z,101475.16
2022-08-12T23:40:24.352Z,101477.25
2022-08-12T23:42:54.015Z,101474.66
2022-08-12T23:45:31.493Z,101478.38
2022-08-12T23:48:06.983Z,101469.13
2022-08-12T23:50:35.175Z,101470.09
2022-08-12T23:53:06.413Z,101473.31
2022-08-12T23:55:45.478Z,101470.88
2022-08-12T23:58:21.854Z,101469.44
